createdAt,value
2018-11-14T00:01:49.598Z,12.20
2018-11-14T00:04:17.087Z,6.90
2018-11-14T00:06:44.524Z,7.37
2018-11-14T00:09:11.967Z,10.43
2018-11-14T00:11:39.882Z,4.50
2018-11-14T00:14:07.352Z,7.10
2018-11-14T00:16:36.811Z,11.33
2018-11-14T00:19:04.448Z,5.83
2018-11-14T00:21:32.006Z,7.10
2018-11-14T00:23:59.462Z,7.50
2018-11-14T00:26:26.987Z,7.20
2018-11-14T00:28:54.469Z,8.07
2018-11-14T00:31:22.025Z,9.03
2018-11-14T00:33:49.572Z,7.53
2018-11-14T00:36:17.039Z,10.53
2018-11-14T00:38:44.519Z,8.97
2018-11-14T00:41:11.992Z,7.83
2018-11-14T00:43:39.535Z,7.37
2018-11-14T00:46:07.018Z,15.17
2018-11-14T00:48:34.480Z,21.30
2018-11-14T00:51:01.913Z,20.43
2018-11-14T00:53:29.343Z,17.57
2018-11-14T00:55:56.771Z,14.43
2018-11-14T00:58:24.239Z,12.20
2018-11-14T01:00:51.656Z,11.33
2018-11-14T01:03:19.159Z,11.27
2018-11-14T01:05:46.673Z,8.67
2018-11-14T01:08:14.128Z,15.17
2018-11-14T01:10:43.740Z,12.27
2018-11-14T01:13:11.298Z,10.67
2018-11-14T01:15:38.702Z,12.10
2018-11-14T01:18:06.386Z,5.23
2018-11-14T01:20:33.556Z,7.97
2018-11-14T01:23:01.019Z,11.97
2018-11-14T01:25:28.567Z,9.43
2018-11-14T01:27:56.098Z,9.50
2018-11-14T01:30:24.176Z,5.63
2018-11-14T01:32:52.397Z,6.23
2018-11-14T01:35:20.071Z,11.13
2018-11-14T01:37:47.705Z,8.27
2018-11-14T01:40:19.003Z,9.37
2018-11-14T01:42:48.768Z,12.03
2018-11-14T01:45:16.285Z,5.87
2018-11-14T01:47:43.847Z,11.00
2018-11-14T01:50:11.434Z,9.63
2018-11-14T01:52:39.057Z,8.20
2018-11-14T01:55:08.388Z,11.80
2018-11-14T01:57:35.899Z,6.17
2018-11-14T02:00:03.599Z,10.07
2018-11-14T02:02:31.308Z,7.77
2018-11-14T02:04:58.772Z,5.40
2018-11-14T02:07:26.288Z,6.87
2018-11-14T02:09:53.751Z,5.87
2018-11-14T02:12:21.156Z,7.60
2018-11-14T02:14:48.729Z,11.83
2018-11-14T02:17:16.267Z,12.70
2018-11-14T02:19:43.693Z,8.60
2018-11-14T02:22:11.147Z,5.47
2018-11-14T02:24:38.647Z,10.83
2018-11-14T02:27:06.109Z,13.83
2018-11-14T02:29:33.543Z,5.47
2018-11-14T02:32:00.998Z,10.23
2018-11-14T02:34:28.443Z,6.07
2018-11-14T02:36:55.923Z,9.27
2018-11-14T02:39:23.356Z,6.57
2018-11-14T02:41:50.884Z,9.73
2018-11-14T02:44:18.307Z,9.43
2018-11-14T02:46:45.748Z,7.63
2018-11-14T02:49:13.171Z,11.97
2018-11-14T02:51:40.686Z,6.33
2018-11-14T02:54:08.147Z,6.77
2018-11-14T02:56:36.102Z,15.93
2018-11-14T02:59:03.985Z,10.20
2018-11-14T03:01:31.384Z,8.00
2018-11-14T03:03:58.907Z,11.67
2018-11-14T03:06:26.359Z,11.13
2018-11-14T03:08:54.055Z,11.67
2018-11-14T03:11:21.541Z,12.73
2018-11-14T03:13:48.965Z,20.43
2018-11-14T03:16:17.866Z,13.70
2018-11-14T03:18:45.908Z,18.57
2018-11-14T03:21:13.906Z,14.13
2018-11-14T03:23:41.972Z,20.63
2018-11-14T03:26:10.016Z,18.03
2018-11-14T03:28:38.048Z,26.80
2018-11-14T03:31:05.957Z,35.57
2018-11-14T03:33:33.421Z,16.33
2018-11-14T03:36:06.484Z,20.03
2018-11-14T03:38:33.987Z,26.87
2018-11-14T03:41:01.508Z,76.10
2018-11-14T03:43:29.064Z,106.90
2018-11-14T03:45:56.585Z,96.47
2018-11-14T03:48:24.111Z,45.27
2018-11-14T03:50:51.636Z,91.50
2018-11-14T03:53:19.076Z,40.63
2018-11-14T03:55:46.575Z,47.53
2018-11-14T03:58:14.097Z,78.97
2018-11-14T04:00:41.600Z,217.10
2018-11-14T04:03:09.120Z,305.27
2018-11-14T04:05:36.652Z,154.07
2018-11-14T04:08:04.133Z,60.20
2018-11-14T04:10:31.599Z,52.83
2018-11-14T04:12:59.153Z,29.73
2018-11-14T04:15:26.631Z,21.50
2018-11-14T04:17:54.083Z,160.27
2018-11-14T04:20:21.648Z,97.70
2018-11-14T04:22:49.208Z,90.43
2018-11-14T04:25:18.791Z,148.80
2018-11-14T04:27:46.991Z,79.27
2018-11-14T04:30:15.599Z,241.87
2018-11-14T04:32:44.059Z,184.20
2018-11-14T04:35:12.881Z,124.53
2018-11-14T04:37:40.405Z,117.03
2018-11-14T04:40:12.096Z,177.27
2018-11-14T04:42:39.592Z,46.20
2018-11-14T04:45:08.896Z,70.17
2018-11-14T04:47:37.412Z,71.70
2018-11-14T04:50:07.029Z,91.97
2018-11-14T04:52:34.508Z,53.63
2018-11-14T04:55:02.076Z,47.43
2018-11-14T04:57:29.566Z,65.40
2018-11-14T04:59:57.310Z,22.17
2018-11-14T05:02:24.808Z,44.77
2018-11-14T05:04:52.239Z,49.10
2018-11-14T05:07:19.701Z,43.47
2018-11-14T05:09:47.173Z,30.87
2018-11-14T05:12:14.716Z,44.07
2018-11-14T05:14:42.208Z,17.53
2018-11-14T05:17:10.536Z,31.87
2018-11-14T05:19:38.020Z,38.97
2018-11-14T05:22:05.700Z,24.43
2018-11-14T05:24:33.326Z,21.73
2018-11-14T05:27:00.775Z,26.63
2018-11-14T05:29:29.361Z,18.43
2018-11-14T05:31:57.343Z,9.57
2018-11-14T05:34:24.732Z,8.23
2018-11-14T05:36:52.224Z,31.03
2018-11-14T05:39:19.681Z,33.57
2018-11-14T05:41:47.212Z,26.30
2018-11-14T05:44:14.695Z,24.07
2018-11-14T05:46:42.101Z,20.77
2018-11-14T05:49:09.573Z,22.97
2018-11-14T05:51:36.979Z,28.07
2018-11-14T05:54:04.680Z,25.13
2018-11-14T05:56:32.095Z,25.23
2018-11-14T05:58:59.645Z,47.03
2018-11-14T06:01:27.190Z,29.77
2018-11-14T06:03:55.092Z,49.30
2018-11-14T06:06:22.983Z,48.13
2018-11-14T06:08:51.089Z,40.90
2018-11-14T06:11:19.084Z,21.83
2018-11-14T06:13:47.022Z,65.57
2018-11-14T06:16:16.437Z,27.50
2018-11-14T06:18:44.524Z,47.50
2018-11-14T06:21:14.143Z,112.57
2018-11-14T06:23:41.697Z,80.57
2018-11-14T06:26:09.570Z,25.70
2018-11-14T06:28:37.049Z,75.13
2018-11-14T06:31:04.814Z,53.93
2018-11-14T06:33:32.280Z,56.57
2018-11-14T06:35:59.703Z,62.57
2018-11-14T06:38:27.770Z,89.43
2018-11-14T06:40:55.371Z,88.40
2018-11-14T06:43:22.796Z,44.77
2018-11-14T06:45:51.142Z,55.30
2018-11-14T06:48:18.627Z,34.57
2018-11-14T06:50:46.063Z,20.83
2018-11-14T06:53:13.539Z,47.60
2018-11-14T06:55:41.041Z,65.23
2018-11-14T06:58:08.493Z,43.97
2018-11-14T07:00:36.044Z,46.40
2018-11-14T07:03:05.050Z,34.33
2018-11-14T07:05:32.921Z,14.73
2018-11-14T07:08:00.444Z,20.10
2018-11-14T07:10:29.328Z,23.80
2018-11-14T07:13:02.539Z,47.63
2018-11-14T07:15:29.985Z,18.37
2018-11-14T07:17:58.144Z,42.37
2018-11-14T07:20:31.146Z,48.63
2018-11-14T07:22:58.771Z,37.67
2018-11-14T07:25:29.248Z,64.40
2018-11-14T07:27:56.816Z,135.33
2018-11-14T07:30:26.343Z,153.93
2018-11-14T07:32:55.822Z,125.83
2018-11-14T07:35:23.592Z,103.13
2018-11-14T07:38:59.912Z,80.17
2018-11-14T07:41:30.420Z,73.53
2018-11-14T07:43:58.228Z,168.37
2018-11-14T07:46:27.275Z,35.10
2018-11-14T07:48:54.897Z,100.73
2018-11-14T07:51:22.530Z,43.83
2018-11-14T07:53:50.294Z,101.30
2018-11-14T07:56:17.814Z,281.33
2018-11-14T07:58:45.293Z,71.57
2018-11-14T08:01:12.951Z,59.90
2018-11-14T08:03:40.489Z,74.10
2018-11-14T08:06:08.000Z,80.07
2018-11-14T08:08:35.528Z,55.60
2018-11-14T08:11:03.072Z,67.90
2018-11-14T08:13:31.769Z,65.57
2018-11-14T08:15:59.949Z,75.67
2018-11-14T08:18:27.528Z,53.87
2018-11-14T08:20:55.633Z,55.00
2018-11-14T08:23:23.157Z,105.60
2018-11-14T08:25:50.692Z,98.87
2018-11-14T08:28:18.215Z,73.30
2018-11-14T08:30:46.099Z,153.90
2018-11-14T08:33:13.483Z,151.20
2018-11-14T08:35:41.041Z,113.50
2018-11-14T08:38:09.036Z,84.67
2018-11-14T08:40:36.611Z,67.30
2018-11-14T08:43:04.791Z,62.20
2018-11-14T08:45:32.297Z,115.03
2018-11-14T08:47:59.802Z,78.30
2018-11-14T08:50:27.391Z,88.53
2018-11-14T08:52:54.846Z,66.13
2018-11-14T08:55:22.346Z,108.97
2018-11-14T08:57:49.911Z,47.80
2018-11-14T09:00:21.059Z,63.33
2018-11-14T09:02:49.413Z,64.03
2018-11-14T09:05:16.995Z,78.30
2018-11-14T09:07:44.616Z,176.73
2018-11-14T09:10:15.262Z,187.97
2018-11-14T09:12:43.206Z,153.07
2018-11-14T09:15:12.962Z,118.33
2018-11-14T09:17:40.432Z,129.27
2018-11-14T09:20:10.279Z,154.30
2018-11-14T09:22:37.944Z,182.13
2018-11-14T09:25:07.811Z,145.13
2018-11-14T09:27:35.288Z,112.47
2018-11-14T09:30:02.968Z,117.83
2018-11-14T09:32:30.468Z,111.03
2018-11-14T09:34:57.940Z,127.33
2018-11-14T09:37:25.472Z,138.93
2018-11-14T09:39:52.953Z,99.23
2018-11-14T09:42:20.383Z,231.73
2018-11-14T09:44:47.895Z,170.63
2018-11-14T09:47:15.455Z,151.50
2018-11-14T09:49:43.004Z,80.10
2018-11-14T09:52:10.556Z,81.40
2018-11-14T09:54:38.096Z,53.43
2018-11-14T09:57:05.690Z,48.33
2018-11-14T09:59:33.102Z,55.13
2018-11-14T10:02:00.839Z,45.43
2018-11-14T10:04:28.341Z,64.13
2018-11-14T10:06:55.860Z,80.93
2018-11-14T10:09:23.827Z,31.10
2018-11-14T10:11:51.272Z,42.10
2018-11-14T10:14:18.821Z,47.80
2018-11-14T10:16:46.361Z,76.97
2018-11-14T10:19:13.892Z,35.60
2018-11-14T10:21:41.436Z,32.63
2018-11-14T10:24:08.954Z,28.33
2018-11-14T10:26:36.680Z,44.20
2018-11-14T10:29:04.171Z,37.90
2018-11-14T10:31:31.687Z,50.93
2018-11-14T10:33:59.324Z,55.97
2018-11-14T10:36:26.771Z,28.43
2018-11-14T10:38:54.238Z,32.27
2018-11-14T10:41:22.418Z,46.80
2018-11-14T10:43:50.332Z,30.80
2018-11-14T10:46:17.832Z,33.17
2018-11-14T10:48:45.323Z,34.73
2018-11-14T10:51:12.708Z,46.23
2018-11-14T10:53:40.145Z,43.60
2018-11-14T10:56:07.615Z,33.67
2018-11-14T10:58:35.183Z,24.77
2018-11-14T11:01:08.357Z,27.93
2018-11-14T11:03:41.493Z,31.60
2018-11-14T11:06:16.427Z,41.90
2018-11-14T11:08:49.648Z,45.77
2018-11-14T11:11:18.473Z,32.87
2018-11-14T11:14:48.671Z,46.20
2018-11-14T11:17:20.345Z,29.67
2018-11-14T11:19:47.916Z,31.47
2018-11-14T11:22:15.399Z,32.13
2018-11-14T11:24:42.813Z,41.37
2018-11-14T11:27:10.250Z,40.73
2018-11-14T11:29:37.680Z,42.07
2018-11-14T11:32:05.285Z,40.87
2018-11-14T11:34:32.668Z,49.33
2018-11-14T11:37:00.151Z,46.00
2018-11-14T11:39:27.637Z,63.27
2018-11-14T11:41:55.152Z,64.77
2018-11-14T11:44:22.717Z,61.03
2018-11-14T11:46:50.145Z,62.80
2018-11-14T11:49:17.671Z,70.00
2018-11-14T11:51:45.096Z,94.73
2018-11-14T11:54:13.660Z,97.27
2018-11-14T11:56:41.108Z,85.60
2018-11-14T11:59:08.935Z,97.77
2018-11-14T12:01:36.408Z,84.07
2018-11-14T12:04:04.411Z,73.27
2018-11-14T12:06:31.923Z,95.33
2018-11-14T12:08:59.375Z,111.03
2018-11-14T12:11:27.735Z,83.37
2018-11-14T12:13:55.261Z,92.37
2018-11-14T12:16:22.936Z,99.77
2018-11-14T12:18:50.622Z,90.10
2018-11-14T12:21:18.084Z,106.50
2018-11-14T12:23:45.591Z,96.10
2018-11-14T12:26:13.024Z,107.07
2018-11-14T12:28:40.458Z,78.47
2018-11-14T12:31:08.034Z,86.47
2018-11-14T12:33:35.331Z,67.30
2018-11-14T12:36:02.743Z,56.87
2018-11-14T12:38:30.209Z,59.53
2018-11-14T12:40:57.721Z,59.80
2018-11-14T12:43:25.193Z,70.97
2018-11-14T12:45:52.640Z,59.30
2018-11-14T12:48:20.093Z,52.87
2018-11-14T12:50:47.535Z,61.27
2018-11-14T12:53:15.000Z,59.63
2018-11-14T12:55:42.432Z,61.40
2018-11-14T12:58:09.868Z,64.23
2018-11-14T13:00:37.308Z,92.83
2018-11-14T13:03:05.060Z,90.97
2018-11-14T13:05:32.500Z,75.77
2018-11-14T13:07:59.941Z,76.70
2018-11-14T13:10:27.376Z,76.20
2018-11-14T13:12:54.813Z,84.20
2018-11-14T13:15:22.259Z,90.93
2018-11-14T13:17:49.681Z,81.67
2018-11-14T13:20:18.692Z,82.23
2018-11-14T13:22:46.155Z,81.07
2018-11-14T13:25:14.421Z,85.07
2018-11-14T13:27:43.052Z,74.70
2018-11-14T13:30:12.884Z,83.40
2018-11-14T13:32:40.355Z,89.87
2018-11-14T13:35:09.957Z,92.23
2018-11-14T13:37:37.423Z,91.43
2018-11-14T13:40:05.488Z,88.27
2018-11-14T13:42:32.982Z,73.73
2018-11-14T13:45:00.460Z,102.13
2018-11-14T13:47:27.911Z,102.57
2018-11-14T13:49:55.595Z,89.07
2018-11-14T13:52:22.838Z,96.20
2018-11-14T13:54:50.330Z,87.03
2018-11-14T13:57:17.860Z,92.03
2018-11-14T13:59:45.312Z,92.10
2018-11-14T14:02:12.768Z,90.30
2018-11-14T14:04:40.198Z,95.67
2018-11-14T14:07:07.752Z,115.73
2018-11-14T14:09:35.272Z,98.23
2018-11-14T14:12:02.673Z,106.07
2018-11-14T14:14:30.239Z,96.90
2018-11-14T14:16:57.672Z,90.20
2018-11-14T14:19:25.127Z,98.43
2018-11-14T14:21:52.596Z,77.23
2018-11-14T14:24:20.061Z,73.37
2018-11-14T14:26:47.482Z,77.73
2018-11-14T14:29:14.891Z,89.37
2018-11-14T14:31:42.382Z,84.90
2018-11-14T14:34:09.795Z,79.57
2018-11-14T14:36:37.273Z,79.23
2018-11-14T14:39:07.647Z,69.33
2018-11-14T14:41:35.066Z,76.33
2018-11-14T14:44:02.520Z,71.47
2018-11-14T14:46:29.927Z,98.07
2018-11-14T14:48:57.396Z,84.33
2018-11-14T14:51:24.807Z,85.40
2018-11-14T14:53:52.412Z,80.97
2018-11-14T14:56:19.933Z,92.00
2018-11-14T14:58:47.340Z,96.83
2018-11-14T15:01:14.779Z,90.03
2018-11-14T15:03:42.293Z,80.03
2018-11-14T15:06:09.675Z,79.60
2018-11-14T15:08:37.134Z,77.57
2018-11-14T15:11:04.671Z,82.47
2018-11-14T15:13:32.087Z,80.57
2018-11-14T15:15:59.520Z,88.83
2018-11-14T15:18:26.983Z,101.67
2018-11-14T15:20:54.455Z,91.87
2018-11-14T15:23:21.907Z,99.13
2018-11-14T15:25:49.349Z,87.80
2018-11-14T15:28:16.790Z,89.93
2018-11-14T15:30:44.237Z,115.33
2018-11-14T15:33:11.657Z,91.23
2018-11-14T15:35:39.069Z,106.27
2018-11-14T15:38:06.561Z,107.37
2018-11-14T15:40:33.991Z,114.73
2018-11-14T15:43:01.456Z,98.40
2018-11-14T15:45:29.583Z,95.40
2018-11-14T15:47:57.043Z,88.13
2018-11-14T15:50:26.906Z,80.23
2018-11-14T15:52:55.173Z,90.17
2018-11-14T15:55:22.730Z,74.67
2018-11-14T15:57:50.339Z,85.20
2018-11-14T16:00:19.770Z,79.60
2018-11-14T16:02:47.295Z,72.77
2018-11-14T16:05:15.955Z,85.63
2018-11-14T16:07:44.620Z,79.13
2018-11-14T16:10:13.416Z,74.20
2018-11-14T16:12:41.481Z,80.43
2018-11-14T16:15:10.719Z,74.03
2018-11-14T16:17:38.679Z,67.57
2018-11-14T16:20:08.029Z,72.97
2018-11-14T16:22:35.488Z,74.23
2018-11-14T16:25:03.271Z,72.23
2018-11-14T16:27:30.744Z,56.23
2018-11-14T16:29:58.216Z,58.70
2018-11-14T16:32:25.723Z,55.90
2018-11-14T16:34:53.195Z,81.90
2018-11-14T16:37:20.663Z,65.90
2018-11-14T16:39:48.189Z,71.43
2018-11-14T16:42:15.685Z,66.10
2018-11-14T16:44:43.162Z,57.93
2018-11-14T16:47:10.646Z,59.40
2018-11-14T16:49:38.071Z,57.63
2018-11-14T16:52:06.020Z,52.30
2018-11-14T16:54:33.503Z,51.57
2018-11-14T16:57:01.040Z,45.10
2018-11-14T16:59:28.509Z,35.53
2018-11-14T17:01:56.009Z,102.63
2018-11-14T17:04:23.516Z,38.20
2018-11-14T17:06:50.959Z,26.30
2018-11-14T17:09:18.457Z,32.93
2018-11-14T17:11:47.779Z,26.87
2018-11-14T17:14:15.960Z,27.40
2018-11-14T17:16:43.382Z,25.83
2018-11-14T17:19:12.163Z,25.87
2018-11-14T17:21:39.639Z,25.27
2018-11-14T17:24:07.178Z,27.03
2018-11-14T17:26:35.402Z,23.90
2018-11-14T17:29:02.872Z,27.00
2018-11-14T17:31:30.321Z,30.37
2018-11-14T17:33:57.845Z,31.90
2018-11-14T17:36:25.312Z,40.00
2018-11-14T17:38:52.941Z,30.73
2018-11-14T17:41:20.465Z,30.90
2018-11-14T17:46:31.697Z,24.67
2018-11-14T17:48:59.273Z,52.40
2018-11-14T17:51:29.685Z,86.70
2018-11-14T17:53:57.246Z,73.13
2018-11-14T17:56:24.707Z,59.03
2018-11-14T17:59:01.865Z,46.00
2018-11-14T18:01:29.971Z,32.57
2018-11-14T18:04:00.007Z,33.60
2018-11-14T18:06:27.519Z,35.70
2018-11-14T18:08:55.048Z,26.57
2018-11-14T18:11:22.488Z,28.33
2018-11-14T18:13:52.454Z,25.30
2018-11-14T18:16:21.818Z,26.23
2018-11-14T18:18:49.373Z,30.87
2018-11-14T18:21:16.899Z,30.23
2018-11-14T18:23:44.407Z,29.47
2018-11-14T18:26:11.856Z,30.97
2018-11-14T18:28:39.309Z,35.20
2018-11-14T18:31:06.745Z,33.43
2018-11-14T18:33:34.164Z,30.80
2018-11-14T18:36:01.576Z,31.03
2018-11-14T18:38:29.075Z,28.80
2018-11-14T18:40:58.039Z,32.10
2018-11-14T18:43:27.616Z,36.63
2018-11-14T18:45:55.163Z,30.47
2018-11-14T18:48:27.884Z,33.03
2018-11-14T18:50:59.139Z,36.97
2018-11-14T18:53:26.820Z,34.70
2018-11-14T18:55:56.330Z,35.47
2018-11-14T18:58:26.609Z,38.87
2018-11-14T19:00:57.879Z,37.03
2018-11-14T19:03:26.391Z,31.60
2018-11-14T19:05:54.131Z,35.20
2018-11-14T19:08:21.603Z,44.37
2018-11-14T19:10:49.054Z,37.70
2018-11-14T19:13:16.479Z,42.67
2018-11-14T19:15:43.920Z,33.43
2018-11-14T19:18:11.369Z,40.40
2018-11-14T19:20:38.832Z,35.93
2018-11-14T19:23:06.401Z,37.93
2018-11-14T19:25:35.169Z,38.93
2018-11-14T19:28:02.730Z,39.17
2018-11-14T19:30:32.526Z,43.57
2018-11-14T19:33:00.858Z,40.47
2018-11-14T19:35:28.311Z,42.50
2018-11-14T19:37:56.435Z,47.40
2018-11-14T19:40:25.955Z,37.37
2018-11-14T19:42:55.612Z,37.63
2018-11-14T19:45:24.365Z,41.97
2018-11-14T19:47:51.946Z,46.77
2018-11-14T19:50:20.350Z,56.80
2018-11-14T19:52:48.126Z,89.30
2018-11-14T19:55:17.007Z,62.03
2018-11-14T19:57:45.297Z,61.43
2018-11-14T20:00:15.088Z,46.83
2018-11-14T20:02:42.557Z,48.27
2018-11-14T20:05:11.316Z,40.87
2018-11-14T20:07:38.814Z,39.30
2018-11-14T20:10:11.395Z,39.43
2018-11-14T20:12:38.864Z,34.40
2018-11-14T20:15:07.743Z,40.63
2018-11-14T20:17:35.232Z,34.57
2018-11-14T20:20:03.408Z,41.80
2018-11-14T20:22:31.010Z,40.33
2018-11-14T20:24:58.441Z,41.20
2018-11-14T20:27:25.864Z,41.57
2018-11-14T20:29:53.342Z,40.63
2018-11-14T20:32:20.765Z,41.40
2018-11-14T20:34:48.259Z,33.23
2018-11-14T20:37:15.741Z,38.10
2018-11-14T20:39:43.131Z,36.87
2018-11-14T20:42:10.567Z,31.30
2018-11-14T20:44:37.995Z,37.00
2018-11-14T20:47:05.605Z,33.67
2018-11-14T20:49:33.033Z,32.60
2018-11-14T20:52:00.469Z,34.07
2018-11-14T20:54:27.955Z,35.03
2018-11-14T20:56:55.371Z,34.47
2018-11-14T20:59:22.880Z,36.23
2018-11-14T21:01:50.346Z,37.00
2018-11-14T21:04:17.793Z,35.50
2018-11-14T21:06:45.644Z,39.10
2018-11-14T21:09:13.559Z,34.40
2018-11-14T21:11:41.030Z,40.70
2018-11-14T21:14:08.678Z,38.53
2018-11-14T21:16:36.289Z,37.27
2018-11-14T21:19:09.333Z,39.57
2018-11-14T21:21:36.863Z,39.77
2018-11-14T21:24:09.988Z,41.10
2018-11-14T21:26:37.416Z,36.87
2018-11-14T21:29:10.072Z,37.47
2018-11-14T21:31:37.712Z,39.10
2018-11-14T21:34:06.836Z,38.53
2018-11-14T21:36:34.264Z,33.27
2018-11-14T21:39:01.741Z,34.30
2018-11-14T21:41:29.182Z,34.47
2018-11-14T21:43:56.631Z,36.80
2018-11-14T21:46:30.211Z,31.63
2018-11-14T21:48:57.636Z,35.90
2018-11-14T21:51:25.075Z,39.30
2018-11-14T21:53:52.627Z,39.73
2018-11-14T21:56:20.108Z,38.20
2018-11-14T21:58:47.535Z,32.30
2018-11-14T22:01:15.073Z,41.83
2018-11-14T22:03:42.559Z,29.37
2018-11-14T22:06:10.149Z,21.87
2018-11-14T22:08:37.644Z,22.67
2018-11-14T22:11:05.118Z,22.13
2018-11-14T22:13:32.584Z,24.27
2018-11-14T22:16:00.894Z,24.67
2018-11-14T22:18:28.977Z,23.53
2018-11-14T22:20:56.436Z,24.10
2018-11-14T22:23:23.820Z,25.73
2018-11-14T22:25:51.344Z,25.40
2018-11-14T22:28:18.767Z,26.20
2018-11-14T22:30:46.200Z,23.50
2018-11-14T22:33:14.012Z,24.07
2018-11-14T22:35:41.777Z,21.70
2018-11-14T22:38:09.468Z,20.43
2018-11-14T22:40:36.990Z,22.93
2018-11-14T22:43:04.564Z,24.50
2018-11-14T22:45:32.795Z,27.70
2018-11-14T22:48:00.395Z,34.13
2018-11-14T22:50:28.002Z,29.13
2018-11-14T22:52:55.483Z,28.20
2018-11-14T22:55:23.949Z,32.13
2018-11-14T22:57:52.011Z,30.57
2018-11-14T23:00:23.535Z,27.80
2018-11-14T23:02:52.623Z,28.67
2018-11-14T23:05:21.083Z,28.97
2018-11-14T23:07:49.786Z,28.83
2018-11-14T23:10:17.945Z,31.13
2018-11-14T23:12:45.738Z,28.00
2018-11-14T23:15:13.239Z,29.10
2018-11-14T23:17:40.739Z,25.97
2018-11-14T23:20:10.808Z,28.80
2018-11-14T23:22:38.799Z,29.70
2018-11-14T23:25:06.663Z,25.70
2018-11-14T23:27:34.164Z,29.13
2018-11-14T23:30:01.591Z,23.63
2018-11-14T23:32:29.022Z,26.90
2018-11-14T23:35:02.280Z,31.03
2018-11-14T23:37:29.719Z,27.73
2018-11-14T23:39:57.219Z,27.83
2018-11-14T23:42:24.691Z,26.77
2018-11-14T23:44:52.183Z,28.70
2018-11-14T23:47:19.660Z,35.27
2018-11-14T23:49:47.096Z,29.10
2018-11-14T23:52:14.571Z,28.07
2018-11-14T23:54:41.992Z,29.60
2018-11-14T23:57:09.420Z,27.83
2018-11-14T23:59:36.847Z,27.73
